RJTA(METAR)
12/11 17:00
METAR RJTA 110800Z 36009KT 5000 -RA BR FEW008 BKN030 06/01 Q1027 RMK
1ST008 7SC030 A3035=
戻る
トップページへ戻る
IMOC Co,.Ltd.